createdAt,value
2017-11-27T00:00:17.229Z,20.40
2017-11-27T00:02:45.037Z,20.30
2017-11-27T00:05:12.829Z,20.40
2017-11-27T00:07:40.578Z,20.30
2017-11-27T00:10:08.457Z,20.30
2017-11-27T00:12:36.208Z,20.30
2017-11-27T00:15:04.047Z,20.20
2017-11-27T00:17:31.825Z,20.20
2017-11-27T00:19:59.576Z,20.10
2017-11-27T00:22:39.292Z,20.00
2017-11-27T00:25:07.095Z,20.10
2017-11-27T00:27:34.920Z,20.10
2017-11-27T00:30:02.709Z,20.10
2017-11-27T00:32:30.564Z,20.10
2017-11-27T00:34:58.377Z,20.10
2017-11-27T00:37:26.146Z,20.10
2017-11-27T00:39:53.887Z,20.00
2017-11-27T00:42:23.212Z,20.00
2017-11-27T00:44:51.112Z,19.90
2017-11-27T00:47:18.846Z,20.00
2017-11-27T00:49:46.613Z,20.00
2017-11-27T00:52:15.236Z,20.00
2017-11-27T00:54:43.008Z,20.00
2017-11-27T00:57:10.777Z,19.90
2017-11-27T00:59:38.615Z,19.70
2017-11-27T01:02:07.101Z,19.70
2017-11-27T01:04:34.897Z,19.70
2017-11-27T01:07:02.700Z,19.80
2017-11-27T01:09:30.468Z,19.80
2017-11-27T01:11:58.320Z,19.80
2017-11-27T01:14:26.129Z,19.70
2017-11-27T01:16:53.855Z,19.70
2017-11-27T01:19:21.636Z,19.70
2017-11-27T01:21:49.433Z,19.60
2017-11-27T01:24:17.970Z,19.60
2017-11-27T01:26:45.730Z,19.60
2017-11-27T01:29:13.458Z,19.60
2017-11-27T01:31:41.251Z,19.30
2017-11-27T01:34:09.013Z,19.30
2017-11-27T01:36:36.897Z,19.40
2017-11-27T01:39:04.754Z,19.10
2017-11-27T01:41:32.501Z,19.30
2017-11-27T01:44:01.091Z,19.50
2017-11-27T01:46:29.135Z,19.40
2017-11-27T01:48:56.885Z,19.50
2017-11-27T01:51:24.768Z,19.50
2017-11-27T01:53:52.575Z,19.20
2017-11-27T01:56:20.417Z,19.30
2017-11-27T01:58:48.224Z,19.40
2017-11-27T02:01:16.013Z,19.40
2017-11-27T02:03:43.804Z,19.40
2017-11-27T02:06:11.747Z,19.40
2017-11-27T02:08:39.484Z,19.40
2017-11-27T02:11:07.224Z,19.40
2017-11-27T02:13:35.787Z,19.10
2017-11-27T02:16:03.590Z,19.00
2017-11-27T02:18:31.406Z,18.90
2017-11-27T02:20:59.241Z,19.00
2017-11-27T02:23:27.004Z,19.20
2017-11-27T02:25:54.768Z,19.20
2017-11-27T02:28:22.700Z,19.20
2017-11-27T02:30:50.448Z,19.20
2017-11-27T02:33:18.223Z,19.20
2017-11-27T02:35:46.061Z,19.20
2017-11-27T02:38:13.849Z,19.20
2017-11-27T02:40:41.597Z,18.90
2017-11-27T02:43:09.448Z,19.00
2017-11-27T02:45:37.233Z,19.10
2017-11-27T02:48:05.037Z,19.10
2017-11-27T02:50:32.835Z,19.20
2017-11-27T02:53:00.625Z,19.20
2017-11-27T02:55:28.388Z,19.10
2017-11-27T02:57:56.194Z,19.10
2017-11-27T03:00:23.986Z,19.10
2017-11-27T03:02:51.809Z,19.10
2017-11-27T03:05:19.603Z,19.10
2017-11-27T03:07:47.425Z,19.10
2017-11-27T03:10:15.155Z,19.10
2017-11-27T03:12:43.740Z,19.00
2017-11-27T03:15:11.580Z,19.00
2017-11-27T03:17:39.363Z,19.00
2017-11-27T03:20:07.198Z,19.00
2017-11-27T03:22:34.971Z,19.00
2017-11-27T03:25:02.782Z,19.00
2017-11-27T03:27:30.564Z,19.00
2017-11-27T03:29:58.330Z,19.00
2017-11-27T03:32:26.056Z,19.00
2017-11-27T03:34:53.991Z,18.90
2017-11-27T03:37:21.786Z,19.00
2017-11-27T03:39:49.587Z,18.90
2017-11-27T03:42:18.171Z,18.90
2017-11-27T03:44:45.953Z,18.90
2017-11-27T03:47:13.677Z,18.90
2017-11-27T03:49:41.556Z,18.90
2017-11-27T03:52:09.343Z,18.90
2017-11-27T03:54:37.844Z,18.90
2017-11-27T03:57:05.613Z,18.80
2017-11-27T03:59:33.438Z,18.80
2017-11-27T04:02:01.265Z,18.80
2017-11-27T04:04:29.056Z,18.80
2017-11-27T04:06:56.773Z,18.80
2017-11-27T04:09:24.521Z,18.80
2017-11-27T04:11:52.425Z,18.80
2017-11-27T04:14:20.274Z,18.80
2017-11-27T04:16:48.842Z,18.70
2017-11-27T04:19:16.596Z,18.70
2017-11-27T04:21:44.384Z,18.70
2017-11-27T04:24:12.881Z,18.70
2017-11-27T04:26:40.826Z,18.60
2017-11-27T04:29:09.395Z,18.60
2017-11-27T04:31:37.986Z,18.70
2017-11-27T04:34:05.787Z,18.60
2017-11-27T04:36:33.593Z,18.60
2017-11-27T04:39:04.252Z,18.60
2017-11-27T04:41:32.052Z,18.60
2017-11-27T04:43:59.815Z,18.60
2017-11-27T04:46:28.363Z,18.60
2017-11-27T04:48:56.186Z,18.50
2017-11-27T04:51:23.962Z,18.60
2017-11-27T04:53:51.769Z,18.60
2017-11-27T04:56:19.976Z,18.70
2017-11-27T04:58:47.711Z,18.70
2017-11-27T05:01:15.468Z,18.80
2017-11-27T05:03:43.292Z,18.90
2017-11-27T05:06:11.054Z,18.90
2017-11-27T05:08:39.629Z,19.00
2017-11-27T05:11:08.190Z,19.00
2017-11-27T05:13:36.286Z,19.00
2017-11-27T05:16:04.102Z,19.20
2017-11-27T05:18:31.922Z,19.20
2017-11-27T05:21:00.525Z,19.30
2017-11-27T05:23:28.316Z,19.30
2017-11-27T05:25:56.096Z,19.40
2017-11-27T05:28:23.980Z,19.50
2017-11-27T05:30:51.708Z,19.60
2017-11-27T05:33:19.454Z,19.60
2017-11-27T05:35:47.364Z,19.70
2017-11-27T05:38:15.243Z,20.00
2017-11-27T05:40:54.668Z,20.20
2017-11-27T05:43:22.576Z,20.20
2017-11-27T05:45:51.553Z,20.30
2017-11-27T05:48:19.949Z,20.20
2017-11-27T05:50:47.831Z,20.30
2017-11-27T05:53:15.588Z,20.30
2017-11-27T05:55:43.379Z,20.40
2017-11-27T05:58:11.148Z,20.60
2017-11-27T06:00:39.882Z,20.60
2017-11-27T06:03:07.636Z,20.50
2017-11-27T06:05:35.359Z,20.60
2017-11-27T06:08:03.976Z,20.60
2017-11-27T06:10:31.764Z,20.50
2017-11-27T06:12:59.556Z,20.60
2017-11-27T06:15:27.372Z,20.80
2017-11-27T06:17:55.097Z,20.90
2017-11-27T06:20:22.882Z,20.90
2017-11-27T06:22:51.507Z,21.00
2017-11-27T06:25:19.319Z,20.90
2017-11-27T06:27:47.152Z,21.00
2017-11-27T06:30:14.897Z,21.00
2017-11-27T06:32:42.683Z,21.20
2017-11-27T06:35:10.467Z,21.20
2017-11-27T06:37:38.254Z,20.80
2017-11-27T06:40:05.981Z,20.10
2017-11-27T06:42:33.763Z,20.70
2017-11-27T06:45:01.659Z,20.90
2017-11-27T06:47:29.450Z,21.10
2017-11-27T06:49:57.241Z,21.20
2017-11-27T06:52:25.596Z,21.20
2017-11-27T06:54:53.369Z,21.30
2017-11-27T06:57:21.087Z,21.30
2017-11-27T06:59:48.888Z,21.30
2017-11-27T07:02:16.756Z,21.30
2017-11-27T07:04:45.298Z,21.40
2017-11-27T07:07:13.093Z,21.40
2017-11-27T07:09:40.874Z,21.40
2017-11-27T07:12:08.662Z,21.40
2017-11-27T07:14:36.406Z,21.50
2017-11-27T07:17:04.228Z,21.50
2017-11-27T07:19:32.088Z,21.50
2017-11-27T07:21:59.821Z,21.60
2017-11-27T07:24:28.368Z,21.60
2017-11-27T07:26:56.099Z,21.60
2017-11-27T07:29:23.883Z,21.60
2017-11-27T07:31:51.619Z,21.70
2017-11-27T07:34:19.352Z,21.70
2017-11-27T07:36:47.110Z,21.70
2017-11-27T07:39:20.331Z,21.70
2017-11-27T07:41:48.878Z,21.70
2017-11-27T07:44:17.444Z,21.70
2017-11-27T07:46:45.230Z,21.60
2017-11-27T07:49:12.994Z,21.70
2017-11-27T07:51:40.784Z,21.70
2017-11-27T07:54:08.514Z,21.80
2017-11-27T07:56:36.253Z,21.80
2017-11-27T07:59:04.176Z,21.70
2017-11-27T08:01:31.917Z,21.70
2017-11-27T08:03:59.629Z,21.80
2017-11-27T08:06:27.504Z,21.80
2017-11-27T08:08:55.246Z,21.90
2017-11-27T08:11:23.023Z,22.00
2017-11-27T08:13:50.839Z,22.00
2017-11-27T08:16:18.621Z,22.00
2017-11-27T08:18:46.718Z,22.00
2017-11-27T08:21:14.455Z,22.00
2017-11-27T08:23:42.191Z,22.10
2017-11-27T08:26:09.977Z,22.20
2017-11-27T08:28:37.771Z,22.20
2017-11-27T08:31:05.510Z,22.30
2017-11-27T08:33:33.249Z,22.20
2017-11-27T08:36:01.033Z,22.30
2017-11-27T08:38:28.832Z,22.10
2017-11-27T08:40:56.635Z,21.50
2017-11-27T08:43:25.220Z,22.00
2017-11-27T08:45:53.077Z,22.00
2017-11-27T08:48:20.827Z,22.30
2017-11-27T08:50:48.633Z,22.20
2017-11-27T08:53:17.186Z,21.70
2017-11-27T08:55:44.976Z,21.70
2017-11-27T08:58:12.753Z,21.70
2017-11-27T09:00:40.555Z,21.30
2017-11-27T09:03:08.303Z,20.90
2017-11-27T09:05:36.074Z,20.80
2017-11-27T09:08:03.923Z,21.10
2017-11-27T09:10:32.638Z,20.80
2017-11-27T09:13:00.433Z,20.70
2017-11-27T09:15:28.228Z,20.40
2017-11-27T09:17:55.995Z,20.30
2017-11-27T09:20:23.777Z,20.60
2017-11-27T09:22:51.503Z,20.90
2017-11-27T09:25:19.425Z,21.00
2017-11-27T09:27:47.249Z,21.50
2017-11-27T09:30:15.108Z,21.00
2017-11-27T09:32:42.926Z,21.60
2017-11-27T09:35:10.680Z,21.50
2017-11-27T09:37:38.517Z,21.30
2017-11-27T09:40:06.281Z,21.40
2017-11-27T09:42:34.111Z,21.50
2017-11-27T09:45:01.921Z,21.50
2017-11-27T09:47:29.765Z,21.80
2017-11-27T09:49:57.479Z,21.80
2017-11-27T09:52:26.063Z,21.90
2017-11-27T09:54:53.970Z,21.90
2017-11-27T09:57:21.811Z,21.90
2017-11-27T09:59:49.538Z,20.60
2017-11-27T10:02:17.346Z,19.60
2017-11-27T10:04:45.142Z,19.70
2017-11-27T10:07:12.881Z,20.20
2017-11-27T10:09:40.673Z,20.60
2017-11-27T10:12:08.459Z,20.60
2017-11-27T10:14:36.182Z,20.90
2017-11-27T10:17:04.009Z,20.90
2017-11-27T10:19:31.783Z,20.20
2017-11-27T10:21:59.612Z,19.80
2017-11-27T10:24:27.417Z,20.10
2017-11-27T10:26:55.209Z,20.50
2017-11-27T10:29:23.695Z,20.20
2017-11-27T10:31:51.515Z,20.20
2017-11-27T10:34:19.292Z,20.00
2017-11-27T10:36:47.024Z,19.40
2017-11-27T10:39:14.763Z,18.90
2017-11-27T10:41:42.539Z,19.50
2017-11-27T10:44:10.313Z,19.80
2017-11-27T10:46:38.240Z,19.60
2017-11-27T10:49:06.053Z,19.30
2017-11-27T10:51:33.785Z,18.90
2017-11-27T10:54:01.585Z,19.30
2017-11-27T10:56:29.342Z,19.00
2017-11-27T10:58:57.909Z,19.40
2017-11-27T11:01:25.795Z,19.30
2017-11-27T11:03:54.358Z,19.80
2017-11-27T11:06:22.224Z,19.70
2017-11-27T11:08:50.056Z,19.40
2017-11-27T11:11:17.855Z,18.90
2017-11-27T11:13:45.656Z,19.10
2017-11-27T11:16:13.485Z,18.50
2017-11-27T11:18:41.247Z,19.30
2017-11-27T11:21:09.193Z,19.60
2017-11-27T11:23:37.050Z,19.40
2017-11-27T11:26:04.910Z,19.20
2017-11-27T11:28:32.649Z,19.80
2017-11-27T11:31:00.385Z,19.00
2017-11-27T11:33:28.159Z,18.50
2017-11-27T11:35:55.939Z,18.70
2017-11-27T11:38:23.771Z,18.50
2017-11-27T11:40:51.559Z,18.50
2017-11-27T11:43:19.383Z,18.50
2017-11-27T11:45:47.167Z,19.30
2017-11-27T11:48:14.958Z,19.80
2017-11-27T11:50:42.844Z,19.60
2017-11-27T11:53:10.646Z,19.30
2017-11-27T11:55:38.498Z,18.50
2017-11-27T11:58:07.257Z,19.50
2017-11-27T12:00:35.113Z,19.50
2017-11-27T12:03:02.853Z,19.40
2017-11-27T12:05:30.696Z,19.70
2017-11-27T12:07:58.515Z,20.00
2017-11-27T12:10:26.329Z,19.90
2017-11-27T12:12:54.964Z,21.30
2017-11-27T12:15:22.740Z,21.30
2017-11-27T12:17:50.579Z,21.70
2017-11-27T12:20:18.379Z,21.50
2017-11-27T12:22:46.189Z,20.20
2017-11-27T12:25:14.746Z,18.10
2017-11-27T12:27:42.637Z,18.00
2017-11-27T12:30:10.458Z,18.40
2017-11-27T12:32:38.290Z,18.70
2017-11-27T12:35:06.151Z,19.30
2017-11-27T12:37:33.937Z,19.70
2017-11-27T12:40:01.750Z,20.60
2017-11-27T12:42:29.602Z,20.50
2017-11-27T12:44:58.124Z,21.20
2017-11-27T12:47:26.718Z,21.40
2017-11-27T12:49:55.163Z,21.40
2017-11-27T12:52:22.927Z,21.10
2017-11-27T12:54:50.748Z,20.40
2017-11-27T12:57:18.542Z,20.20
2017-11-27T12:59:46.360Z,20.70
2017-11-27T13:02:14.246Z,20.70
2017-11-27T13:04:42.085Z,20.80
2017-11-27T13:07:09.885Z,20.70
2017-11-27T13:09:38.440Z,20.80
2017-11-27T13:12:06.211Z,20.80
2017-11-27T13:14:38.157Z,20.10
2017-11-27T13:17:07.860Z,18.30
2017-11-27T13:19:35.592Z,18.20
2017-11-27T13:22:03.448Z,19.30
2017-11-27T13:24:31.209Z,20.10
2017-11-27T13:26:59.152Z,21.10
2017-11-27T13:29:26.964Z,21.20
2017-11-27T13:31:55.702Z,20.90
2017-11-27T13:34:23.580Z,21.30
2017-11-27T13:36:51.364Z,19.60
2017-11-27T13:39:19.994Z,16.60
2017-11-27T13:41:47.837Z,16.50
2017-11-27T13:44:15.637Z,18.50
2017-11-27T13:46:43.501Z,19.10
2017-11-27T13:49:11.921Z,19.70
2017-11-27T13:51:40.654Z,19.90
2017-11-27T13:54:08.397Z,19.90
2017-11-27T13:56:36.685Z,19.90
2017-11-27T13:59:04.574Z,21.00
2017-11-27T14:01:32.395Z,21.60
2017-11-27T14:04:00.241Z,21.90
2017-11-27T14:06:28.361Z,21.00
2017-11-27T14:08:56.199Z,20.90
2017-11-27T14:11:23.939Z,21.30
2017-11-27T14:13:51.730Z,21.40
2017-11-27T14:16:19.516Z,21.40
2017-11-27T14:18:48.110Z,21.90
2017-11-27T14:21:15.993Z,21.80
2017-11-27T14:23:43.794Z,22.20
2017-11-27T14:26:11.513Z,21.80
2017-11-27T14:28:40.104Z,21.80
2017-11-27T14:31:07.899Z,21.80
2017-11-27T14:33:35.746Z,22.20
2017-11-27T14:36:03.528Z,22.30
2017-11-27T14:38:31.293Z,22.40
2017-11-27T14:40:59.247Z,22.50
2017-11-27T14:43:27.187Z,22.60
2017-11-27T14:45:54.987Z,22.50
2017-11-27T14:48:22.873Z,22.60
2017-11-27T14:50:51.934Z,22.70
2017-11-27T14:53:19.786Z,22.50
2017-11-27T14:55:49.424Z,22.60
2017-11-27T14:58:17.977Z,22.80
2017-11-27T15:01:00.927Z,22.80
2017-11-27T15:03:29.769Z,22.80
2017-11-27T15:06:01.014Z,22.70
2017-11-27T15:08:32.533Z,22.70
2017-11-27T15:11:00.424Z,22.70
2017-11-27T15:13:28.338Z,22.70
2017-11-27T15:15:56.112Z,22.70
2017-11-27T15:18:24.045Z,22.70
2017-11-27T15:20:51.807Z,22.70
2017-11-27T15:23:19.711Z,22.70
2017-11-27T15:25:47.686Z,22.40
2017-11-27T15:28:16.403Z,22.30
2017-11-27T15:30:44.532Z,22.20
2017-11-27T15:33:13.246Z,22.60
2017-11-27T15:35:41.135Z,22.60
2017-11-27T15:38:09.430Z,22.60
2017-11-27T15:40:39.099Z,22.60
2017-11-27T15:43:06.996Z,22.60
2017-11-27T15:45:35.879Z,22.70
2017-11-27T15:48:03.789Z,22.60
2017-11-27T15:50:33.769Z,22.60
2017-11-27T15:53:01.827Z,22.60
2017-11-27T15:55:33.941Z,22.60
2017-11-27T15:58:01.925Z,22.60
2017-11-27T16:00:30.068Z,22.70
2017-11-27T16:02:58.007Z,22.60
2017-11-27T16:05:26.048Z,22.60
2017-11-27T16:07:53.881Z,22.50
2017-11-27T16:10:21.654Z,22.50
2017-11-27T16:12:50.505Z,22.30
2017-11-27T16:15:18.492Z,22.30
2017-11-27T16:17:46.455Z,22.20
2017-11-27T16:20:15.248Z,21.70
2017-11-27T16:22:43.187Z,21.70
2017-11-27T16:25:10.975Z,21.80
2017-11-27T16:27:38.961Z,21.90
2017-11-27T16:30:07.269Z,21.90
2017-11-27T16:32:38.874Z,21.90
2017-11-27T16:35:14.210Z,21.90
2017-11-27T16:37:42.140Z,21.80
2017-11-27T16:40:10.868Z,21.80
2017-11-27T16:42:38.790Z,21.70
2017-11-27T16:45:07.481Z,21.70
2017-11-27T16:47:37.418Z,21.60
2017-11-27T16:50:05.320Z,21.60
2017-11-27T16:52:42.477Z,21.50
2017-11-27T16:55:10.673Z,21.50
2017-11-27T16:57:38.568Z,21.50
2017-11-27T17:00:06.421Z,21.40
2017-11-27T17:02:34.388Z,21.40
2017-11-27T17:05:02.401Z,21.30
2017-11-27T17:07:31.140Z,21.40
2017-11-27T17:09:59.107Z,21.40
2017-11-27T17:12:27.046Z,21.40
2017-11-27T17:14:55.045Z,21.50
2017-11-27T17:17:36.971Z,21.50
2017-11-27T17:20:05.420Z,21.60
2017-11-27T17:22:33.552Z,21.60
2017-11-27T17:25:01.648Z,21.70
2017-11-27T17:27:31.381Z,21.70
2017-11-27T17:30:40.079Z,19.90
2017-11-27T17:33:10.027Z,18.20
2017-11-27T17:35:38.554Z,17.70
2017-11-27T17:38:07.600Z,19.50
2017-11-27T17:40:35.583Z,20.60
2017-11-27T17:43:03.544Z,21.10
2017-11-27T17:45:31.448Z,21.30
2017-11-27T17:47:59.433Z,21.40
2017-11-27T17:50:27.567Z,21.50
2017-11-27T17:52:56.447Z,21.50
2017-11-27T18:01:34.102Z,21.60
2017-11-27T18:04:01.980Z,21.50
2017-11-27T18:06:29.889Z,21.50
2017-11-27T18:08:58.094Z,21.50
2017-11-27T18:11:27.737Z,21.40
2017-11-27T18:29:48.020Z,21.50
2017-11-27T18:32:16.039Z,21.30
2017-11-27T18:47:56.176Z,21.20
2017-11-27T18:50:25.250Z,21.20
2017-11-27T18:52:53.319Z,21.10
2017-11-27T18:55:22.845Z,21.10
2017-11-27T18:57:52.357Z,21.10
2017-11-27T19:00:20.402Z,21.20
2017-11-27T19:02:48.981Z,21.30
2017-11-27T19:05:17.721Z,21.40
2017-11-27T19:07:45.741Z,21.30
2017-11-27T19:10:13.709Z,21.40
2017-11-27T19:12:41.652Z,21.40
2017-11-27T19:15:09.548Z,21.50
2017-11-27T19:17:37.392Z,21.60
2017-11-27T19:20:05.436Z,21.70
2017-11-27T19:22:33.335Z,21.70
2017-11-27T19:25:01.121Z,21.60
2017-11-27T19:27:28.964Z,21.60
2017-11-27T19:29:56.854Z,21.80
2017-11-27T19:32:24.734Z,21.90
2017-11-27T19:34:52.665Z,22.00
2017-11-27T19:37:20.539Z,22.00
2017-11-27T19:39:48.348Z,22.00
2017-11-27T19:42:16.961Z,21.60
2017-11-27T19:44:44.838Z,21.60
2017-11-27T19:47:12.713Z,21.40
2017-11-27T19:49:40.622Z,21.30
2017-11-27T19:52:08.549Z,21.20
2017-11-27T19:54:36.432Z,21.20
2017-11-27T19:57:04.431Z,21.20
2017-11-27T19:59:33.148Z,21.20
2017-11-27T20:02:01.883Z,21.10
2017-11-27T20:04:30.743Z,21.10
2017-11-27T20:06:59.928Z,21.00
2017-11-27T20:09:37.632Z,20.90
2017-11-27T20:12:05.653Z,20.80
2017-11-27T20:14:33.611Z,20.90
2017-11-27T20:17:03.146Z,20.80
2017-11-27T20:19:31.965Z,20.70
2017-11-27T20:22:02.170Z,20.70
2017-11-27T20:27:24.826Z,20.60
2017-11-27T20:29:53.983Z,20.50
2017-11-27T20:32:23.637Z,20.50
2017-11-27T20:34:53.382Z,20.50
2017-11-27T20:37:21.781Z,20.60
2017-11-27T20:39:52.958Z,20.50
2017-11-27T20:42:22.450Z,20.40
2017-11-27T20:44:51.718Z,20.30
2017-11-27T20:47:19.700Z,20.30
2017-11-27T20:49:48.554Z,20.20
2017-11-27T20:52:16.654Z,20.10
2017-11-27T20:54:45.585Z,20.20
2017-11-27T20:57:14.230Z,20.20
2017-11-27T20:59:42.241Z,20.20
2017-11-27T21:02:11.412Z,20.20
2017-11-27T21:04:40.737Z,20.20
2017-11-27T21:07:10.485Z,20.20
2017-11-27T21:09:38.528Z,20.10
2017-11-27T21:12:07.548Z,20.10
2017-11-27T21:14:35.652Z,20.20
2017-11-27T21:17:03.798Z,20.20
2017-11-27T21:19:32.320Z,20.10
2017-11-27T21:22:00.134Z,20.00
2017-11-27T21:24:28.795Z,20.00
2017-11-27T21:26:57.376Z,19.90
2017-11-27T21:29:25.239Z,19.90
2017-11-27T21:31:53.084Z,19.90
2017-11-27T21:34:20.982Z,19.90
2017-11-27T21:36:48.765Z,20.00
2017-11-27T21:39:16.616Z,20.10
2017-11-27T21:41:44.513Z,20.10
2017-11-27T21:44:12.297Z,20.20
2017-11-27T21:46:40.161Z,20.20
2017-11-27T21:49:08.019Z,20.30
2017-11-27T21:51:35.842Z,20.20
2017-11-27T21:54:03.682Z,20.10
2017-11-27T21:56:31.546Z,20.20
2017-11-27T21:58:59.322Z,20.00
2017-11-27T22:01:27.097Z,20.20
2017-11-27T22:03:54.874Z,20.30
2017-11-27T22:06:22.707Z,20.30
2017-11-27T22:08:50.565Z,20.40
2017-11-27T22:11:18.546Z,20.40
2017-11-27T22:13:46.357Z,20.30
2017-11-27T22:16:14.117Z,20.20
2017-11-27T22:18:41.925Z,20.20
2017-11-27T22:21:09.752Z,20.20
2017-11-27T22:23:37.489Z,19.70
2017-11-27T22:26:05.636Z,19.60
2017-11-27T22:29:00.378Z,19.80
2017-11-27T22:31:28.479Z,19.90
2017-11-27T22:33:56.292Z,19.90
2017-11-27T22:36:24.152Z,19.90
2017-11-27T22:38:52.015Z,19.90
2017-11-27T22:41:20.547Z,19.80
2017-11-27T22:43:48.328Z,19.80
2017-11-27T22:46:16.197Z,19.80
2017-11-27T22:48:44.033Z,19.70
2017-11-27T22:51:11.863Z,19.70
2017-11-27T22:53:39.691Z,19.60
2017-11-27T22:56:07.497Z,19.50
2017-11-27T22:58:35.396Z,19.50
2017-11-27T23:01:03.210Z,19.30
2017-11-27T23:03:30.978Z,19.40
2017-11-27T23:05:58.825Z,19.50
2017-11-27T23:08:26.555Z,19.50
2017-11-27T23:10:54.404Z,19.50
2017-11-27T23:13:22.960Z,19.50
2017-11-27T23:15:50.840Z,19.40
2017-11-27T23:18:18.670Z,19.50
2017-11-27T23:20:46.516Z,19.40
2017-11-27T23:23:14.365Z,19.50
2017-11-27T23:25:42.256Z,19.50
2017-11-27T23:28:10.212Z,19.40
2017-11-27T23:30:37.972Z,19.40
2017-11-27T23:33:05.801Z,19.30
2017-11-27T23:35:33.547Z,19.30
2017-11-27T23:38:01.369Z,19.30
2017-11-27T23:40:29.945Z,19.30
2017-11-27T23:42:57.828Z,19.20
2017-11-27T23:45:26.384Z,19.20
2017-11-27T23:47:54.186Z,19.20
2017-11-27T23:50:21.954Z,19.20
2017-11-27T23:52:49.776Z,18.80
2017-11-27T23:55:17.527Z,18.80
2017-11-27T23:57:45.279Z,18.90
